Frisco, Texas
Current Conditions -  °F | °C
As of 3:15 AM on Monday 20 Oct 2014 (Local Time) from KADS Reporting Station
Clear Clear  
Wind Chill: 63°   Ceiling: Unl
Heat Index: 63°   Visibility: 10mi
Dew Point: 55°   Wind: 6mph
Humidity: 74%   Direction: 130°SE
Pressure: 30.06"   Gusts: NA
Location:  33.15°N, 96.82°W
Report Text: KADS 200815Z AUTO 13005KT 10SM CLR 17/13 A3006 RMK AO2 T01710125
Loading
Personal Weather Stations






























Interactive Weather Map
Tropical Storm Tracking
New forecast layout! Learn more

10-Day Weather Forecast

Advertisements
Track Severe Weather on mobile